Time;durP1;ratioP1;P1;durP2;ratioP2;P2;SDS_P1;SDS_P2;PMS_P1;PMS_P2;Temp;Humidity;BMP_temperature;BMP_pressure;BME280_temperature;BME280_humidity;BME280_pressure;Samples;Min_cycle;Max_cycle;Signal;HPM_P1;HPM_P2
2021/11/01 00:00:05;;;;;;;6.00;5.40;;;13.90;99.90;;;;;;5136488;27;20221;-73
2021/11/01 00:02:32;;;;;;;5.53;5.03;;;14.00;99.90;;;;;;5136239;27;20258;-73
2021/11/01 00:05:01;;;;;;;5.50;5.00;;;13.90;99.90;;;;;;5136923;27;20200;-72
2021/11/01 00:07:28;;;;;;;5.68;5.18;;;13.90;99.90;;;;;;5136842;27;20207;-73
2021/11/01 00:09:55;;;;;;;9.32;5.18;;;13.90;99.90;;;;;;5136445;27;20277;-73
2021/11/01 00:12:27;;;;;;;5.93;5.43;;;14.00;99.90;;;;;;5136615;27;20604;-73
2021/11/01 00:14:53;;;;;;;5.70;5.10;;;13.90;99.90;;;;;;5136183;27;20267;-73
2021/11/01 00:17:20;;;;;;;6.43;5.82;;;13.90;99.90;;;;;;5136527;27;20298;-72
2021/11/01 00:19:47;;;;;;;6.07;5.18;;;13.90;99.90;;;;;;5137012;27;20200;-73
2021/11/01 00:22:15;;;;;;;5.40;4.90;;;13.90;99.90;;;;;;5137732;27;20237;-73
2021/11/01 00:24:42;;;;;;;5.05;4.65;;;13.90;99.90;;;;;;5138241;27;20206;-73
2021/11/01 00:27:09;;;;;;;6.53;4.78;;;13.90;99.90;;;;;;5136844;27;20207;-73
2021/11/01 00:29:36;;;;;;;5.80;5.20;;;13.90;99.90;;;;;;5136179;27;20199;-72
2021/11/01 00:32:18;;;;;;;5.25;4.75;;;13.80;99.90;;;;;;5137729;27;20217;-74
2021/11/01 00:34:45;;;;;;;6.13;5.47;;;13.80;99.90;;;;;;5136614;27;20742;-74
2021/11/01 00:37:12;;;;;;;9.68;5.10;;;13.70;99.90;;;;;;5139166;27;20207;-73
2021/11/01 00:39:41;;;;;;;7.57;4.60;;;13.80;99.90;;;;;;5137189;27;20207;-74
2021/11/01 00:42:10;;;;;;;4.63;4.05;;;13.80;99.90;;;;;;5136729;27;20237;-73
2021/11/01 00:44:37;;;;;;;5.72;4.30;;;13.70;99.90;;;;;;5137036;27;20207;-73
2021/11/01 00:47:05;;;;;;;4.63;4.20;;;13.70;99.90;;;;;;5136734;27;20330;-73
2021/11/01 00:49:32;;;;;;;5.03;3.40;;;13.70;99.90;;;;;;5135758;27;20280;-73
2021/11/01 00:52:00;;;;;;;5.38;3.03;;;13.70;99.90;;;;;;5136537;27;20209;-73
2021/11/01 00:54:27;;;;;;;3.42;2.92;;;13.60;99.90;;;;;;5136588;27;20225;-74
2021/11/01 00:56:55;;;;;;;3.20;2.30;;;13.50;99.90;;;;;;5136237;27;20415;-73
2021/11/01 00:59:22;;;;;;;4.13;2.38;;;13.40;99.90;;;;;;5135923;27;20293;-73
2021/11/01 01:01:50;;;;;;;2.75;2.20;;;13.40;99.90;;;;;;5135625;27;20750;-73
2021/11/01 01:04:17;;;;;;;2.47;1.80;;;13.30;99.90;;;;;;5136019;27;20289;-73
2021/11/01 01:06:44;;;;;;;2.28;1.80;;;13.20;99.90;;;;;;5135639;27;20250;-73
2021/11/01 01:09:11;;;;;;;1.98;1.77;;;13.10;99.90;;;;;;5135511;27;20544;-72
2021/11/01 01:11:38;;;;;;;2.22;1.35;;;13.00;99.90;;;;;;5135836;27;20501;-72
2021/11/01 01:14:07;;;;;;;3.15;1.50;;;13.00;99.90;;;;;;5135645;27;20229;-72
2021/11/01 01:16:40;;;;;;;1.42;1.00;;;12.90;99.90;;;;;;5135451;27;20682;-73
2021/11/01 01:19:15;;;;;;;2.17;1.13;;;12.90;99.90;;;;;;5135515;27;20209;-72
2021/11/01 01:24:27;;;;;;;4.05;1.80;;;12.70;99.90;;;;;;5136235;27;20211;-72
2021/11/01 01:26:54;;;;;;;1.23;0.98;;;12.70;99.90;;;;;;5136157;27;20713;-72
2021/11/01 01:29:23;;;;;;;2.97;1.35;;;12.60;99.90;;;;;;5151546;27;20199;-72
2021/11/01 01:31:50;;;;;;;1.65;1.52;;;12.60;99.90;;;;;;5157980;27;20258;-72
2021/11/01 01:34:17;;;;;;;1.95;1.27;;;12.60;99.90;;;;;;5157095;27;20243;-72
2021/11/01 01:36:45;;;;;;;3.60;1.50;;;12.60;99.90;;;;;;5148124;27;20240;-72
2021/11/01 01:39:12;;;;;;;3.03;1.42;;;12.50;99.90;;;;;;5135828;27;20214;-73
2021/11/01 01:41:45;;;;;;;2.50;1.50;;;12.50;99.90;;;;;;5139177;27;20301;-73
2021/11/01 01:44:11;;;;;;;3.60;1.20;;;12.50;99.90;;;;;;5155650;27;20289;-73
2021/11/01 01:46:40;;;;;;;2.28;1.23;;;12.40;99.90;;;;;;5156202;27;20209;-71
2021/11/01 01:49:07;;;;;;;4.20;1.55;;;12.30;99.90;;;;;;5155859;27;20229;-72
2021/11/01 01:51:35;;;;;;;2.45;1.00;;;12.20;99.90;;;;;;5156583;27;20212;-72
2021/11/01 01:54:04;;;;;;;3.05;1.05;;;12.10;99.90;;;;;;5147709;27;20316;-73
2021/11/01 01:56:31;;;;;;;7.97;1.75;;;12.00;99.90;;;;;;5134666;27;20207;-73
2021/11/01 01:59:08;;;;;;;5.38;1.23;;;12.00;99.90;;;;;;5134582;27;20202;-73
2021/11/01 02:01:35;;;;;;;6.63;1.40;;;11.90;99.90;;;;;;5134250;27;20220;-72
2021/11/01 02:04:04;;;;;;;4.30;1.42;;;11.80;99.90;;;;;;5134463;27;20225;-73
2021/11/01 02:06:47;;;;;;;4.80;1.00;;;11.80;99.90;;;;;;5134992;27;20229;-73
2021/11/01 02:09:19;;;;;;;4.03;1.13;;;11.70;99.90;;;;;;5134282;27;20204;-72
2021/11/01 02:11:51;;;;;;;4.25;1.25;;;11.60;99.90;;;;;;5133626;27;20311;-72
2021/11/01 02:14:21;;;;;;;3.90;1.13;;;11.50;99.90;;;;;;5133926;27;20273;-72
2021/11/01 02:16:50;;;;;;;3.47;1.25;;;11.50;99.90;;;;;;5134470;27;20690;-71
2021/11/01 02:19:23;;;;;;;3.42;1.15;;;11.50;99.90;;;;;;5134433;27;20298;-72
2021/11/01 02:21:54;;;;;;;3.83;1.00;;;11.40;99.90;;;;;;5133970;27;20204;-73
2021/11/01 02:24:30;;;;;;;2.45;0.85;;;11.40;99.90;;;;;;5134000;27;20664;-73
2021/11/01 02:27:00;;;;;;;6.55;1.52;;;11.40;99.90;;;;;;5134081;27;20268;-72
2021/11/01 02:29:30;;;;;;;2.28;1.10;;;11.40;99.90;;;;;;5133341;27;20204;-73
2021/11/01 02:31:57;;;;;;;1.85;1.30;;;11.40;99.90;;;;;;5133680;27;20395;-73
2021/11/01 02:34:25;;;;;;;4.30;1.30;;;11.30;99.90;;;;;;5133784;27;20228;-74
2021/11/01 02:36:52;;;;;;;4.38;1.17;;;11.30;99.90;;;;;;5133861;27;20207;-74
2021/11/01 02:39:19;;;;;;;1.98;1.15;;;11.30;99.90;;;;;;5133309;27;20204;-72
2021/11/01 02:41:46;;;;;;;5.03;1.35;;;11.30;99.90;;;;;;5133748;27;20212;-72
2021/11/01 02:44:14;;;;;;;3.28;1.33;;;11.30;99.90;;;;;;5132962;27;20206;-72
2021/11/01 02:46:45;;;;;;;1.30;0.90;;;11.20;99.90;;;;;;5133140;27;20207;-72
2021/11/01 02:49:12;;;;;;;2.28;0.90;;;11.20;99.90;;;;;;5133177;27;20774;-72
2021/11/01 02:51:41;;;;;;;3.10;1.30;;;11.20;99.90;;;;;;5133369;27;20235;-73
2021/11/01 02:54:09;;;;;;;2.30;1.40;;;11.20;99.90;;;;;;5132959;27;20280;-73
2021/11/01 02:56:37;;;;;;;10.23;2.70;;;11.20;99.90;;;;;;5132924;27;20207;-72
2021/11/01 02:59:04;;;;;;;1.70;0.70;;;11.10;99.90;;;;;;5133282;27;20208;-72
2021/11/01 03:01:33;;;;;;;1.27;0.93;;;11.10;99.90;;;;;;5133523;27;20209;-72
2021/11/01 03:03:59;;;;;;;7.43;1.20;;;11.00;99.90;;;;;;5133042;27;20310;-72
2021/11/01 03:06:29;;;;;;;3.78;1.05;;;11.00;99.90;;;;;;5133095;27;20208;-72
2021/11/01 03:08:58;;;;;;;2.85;1.02;;;11.00;99.90;;;;;;5132799;27;20218;-73
2021/11/01 03:11:28;;;;;;;3.15;0.98;;;11.00;99.90;;;;;;5133057;27;20346;-73
2021/11/01 03:13:57;;;;;;;2.28;1.13;;;11.00;99.90;;;;;;5137322;27;20239;-73
2021/11/01 03:16:25;;;;;;;5.50;1.00;;;10.90;99.90;;;;;;5137672;27;20204;-71
2021/11/01 03:19:05;;;;;;;5.13;0.95;;;10.90;99.90;;;;;;5137318;27;20212;-72
2021/11/01 03:21:38;;;;;;;4.68;0.85;;;10.90;99.90;;;;;;5137207;27;20256;-73
2021/11/01 03:24:05;;;;;;;2.92;1.30;;;10.90;99.90;;;;;;5136991;27;20227;-73
2021/11/01 03:26:34;;;;;;;4.30;1.00;;;10.90;99.90;;;;;;5137605;27;20299;-73
2021/11/01 03:29:04;;;;;;;2.50;0.90;;;11.00;99.90;;;;;;5138468;27;20728;-71
2021/11/01 03:31:33;;;;;;;5.90;1.02;;;10.90;99.90;;;;;;5138085;27;20294;-72
2021/11/01 03:34:04;;;;;;;5.47;1.00;;;10.90;99.90;;;;;;5137490;27;20228;-72
2021/11/01 03:36:32;;;;;;;3.47;1.25;;;10.90;99.90;;;;;;5137464;27;20667;-73
2021/11/01 03:39:02;;;;;;;2.35;1.05;;;10.90;99.90;;;;;;5137230;27;20246;-75
2021/11/01 03:41:30;;;;;;;8.10;0.75;;;10.90;99.90;;;;;;5139138;27;20215;-73
2021/11/01 03:44:04;;;;;;;3.28;1.38;;;10.80;99.90;;;;;;5140654;27;20224;-73
2021/11/01 03:46:37;;;;;;;1.17;1.00;;;10.80;99.90;;;;;;5139016;27;20348;-72
2021/11/01 03:49:08;;;;;;;2.00;1.10;;;10.80;99.90;;;;;;5137707;27;20220;-73
2021/11/01 03:51:42;;;;;;;2.55;1.45;;;10.80;99.90;;;;;;5136808;27;20663;-72
2021/11/01 03:54:11;;;;;;;7.40;1.40;;;10.80;99.90;;;;;;5136327;27;20219;-72
2021/11/01 03:56:39;;;;;;;3.25;1.15;;;10.80;99.90;;;;;;5136994;27;20200;-73
2021/11/01 03:59:07;;;;;;;1.95;1.00;;;10.80;99.90;;;;;;5135868;27;20218;-72
2021/11/01 04:01:38;;;;;;;4.78;1.15;;;10.80;99.90;;;;;;5136602;27;20544;-72
2021/11/01 04:04:07;;;;;;;3.25;1.10;;;10.80;99.90;;;;;;5136730;27;20250;-73
2021/11/01 04:06:35;;;;;;;3.95;0.90;;;10.80;99.90;;;;;;5136669;27;20207;-72
2021/11/01 04:09:03;;;;;;;4.32;1.50;;;10.80;99.90;;;;;;5136349;27;20672;-72
2021/11/01 04:11:30;;;;;;;5.72;1.35;;;10.80;99.90;;;;;;5136029;27;20207;-72
2021/11/01 04:14:00;;;;;;;6.25;1.02;;;10.80;99.90;;;;;;5136113;27;20315;-73
2021/11/01 04:16:35;;;;;;;2.70;0.90;;;10.80;99.90;;;;;;5136403;27;20218;-73
2021/11/01 04:19:10;;;;;;;2.40;0.95;;;10.80;99.90;;;;;;5136183;27;20218;-71
2021/11/01 04:21:38;;;;;;;2.05;1.20;;;10.80;99.90;;;;;;5136680;27;20207;-71
2021/11/01 04:24:06;;;;;;;5.10;1.27;;;10.70;99.90;;;;;;5137296;27;20582;-72
2021/11/01 04:26:33;;;;;;;2.55;0.90;;;10.70;99.90;;;;;;5136827;27;20203;-73
2021/11/01 04:29:04;;;;;;;5.35;1.25;;;10.70;99.90;;;;;;5136520;27;20671;-73
2021/11/01 04:31:33;;;;;;;4.72;1.73;;;10.70;99.90;;;;;;5137173;27;20256;-73
2021/11/01 04:34:03;;;;;;;1.05;1.00;;;10.70;99.90;;;;;;5136925;27;20612;-73
2021/11/01 04:36:30;;;;;;;5.50;1.40;;;10.70;99.90;;;;;;5136389;27;20224;-73
2021/11/01 04:39:04;;;;;;;3.28;1.25;;;10.70;99.90;;;;;;5135837;27;20238;-72
2021/11/01 04:41:36;;;;;;;5.88;1.08;;;10.70;99.90;;;;;;5136379;27;20219;-72
2021/11/01 04:44:50;;;;;;;5.43;0.95;;;10.70;99.90;;;;;;5135798;27;20285;-73
2021/11/01 04:52:59;;;;;;;6.88;1.50;;;10.60;99.90;;;;;;5137107;27;20231;-72
2021/11/01 04:55:27;;;;;;;7.22;2.08;;;10.60;99.90;;;;;;5137062;27;20223;-71
2021/11/01 04:57:56;;;;;;;4.15;1.08;;;10.70;99.90;;;;;;5137085;27;20294;-76
2021/11/01 05:00:23;;;;;;;4.70;1.20;;;10.70;99.90;;;;;;5136222;27;20216;-74
2021/11/01 05:02:57;;;;;;;2.85;1.20;;;10.70;99.90;;;;;;5136373;27;20231;-73
2021/11/01 05:05:24;;;;;;;2.45;1.13;;;10.70;99.90;;;;;;5136368;27;20207;-73
2021/11/01 05:07:51;;;;;;;1.95;0.80;;;10.70;99.90;;;;;;5135845;27;20214;-73
2021/11/01 05:10:24;;;;;;;3.58;0.77;;;10.70;99.90;;;;;;5135629;27;20619;-74
2021/11/01 05:12:52;;;;;;;2.55;1.00;;;10.70;99.90;;;;;;5135449;27;20239;-73
2021/11/01 05:15:25;;;;;;;4.00;1.20;;;10.70;99.90;;;;;;5135322;27;20249;-72
2021/11/01 05:17:56;;;;;;;3.53;1.10;;;10.70;99.90;;;;;;5135430;27;20204;-72
2021/11/01 05:20:27;;;;;;;4.00;0.93;;;10.70;99.90;;;;;;5135125;27;20243;-72
2021/11/01 05:23:04;;;;;;;1.27;0.82;;;10.70;99.90;;;;;;5135595;27;20596;-72
2021/11/01 05:25:37;;;;;;;0.82;0.80;;;10.60;99.90;;;;;;5135053;27;20732;-71
2021/11/01 05:28:10;;;;;;;3.28;1.08;;;10.60;99.90;;;;;;5135262;27;20207;-73
2021/11/01 05:30:39;;;;;;;1.42;0.85;;;10.70;99.90;;;;;;5136269;27;20207;-72
2021/11/01 05:33:26;;;;;;;4.63;0.95;;;10.70;99.90;;;;;;5135123;27;20227;-73
2021/11/01 05:35:53;;;;;;;2.88;0.80;;;10.60;99.90;;;;;;5134851;27;20424;-72
2021/11/01 05:38:20;;;;;;;2.00;1.00;;;10.60;99.90;;;;;;5135027;27;20296;-73
2021/11/01 05:40:46;;;;;;;1.42;1.08;;;10.60;99.90;;;;;;5134671;27;20216;-73
2021/11/01 05:43:15;;;;;;;4.00;0.93;;;10.60;99.90;;;;;;5134737;27;20224;-72
2021/11/01 05:45:42;;;;;;;1.35;0.65;;;10.60;99.90;;;;;;5135053;27;20291;-72
2021/11/01 05:48:09;;;;;;;1.70;0.60;;;10.60;99.90;;;;;;5135097;27;20207;-74
2021/11/01 05:50:37;;;;;;;3.47;0.73;;;10.60;99.90;;;;;;5135132;27;20203;-73
2021/11/01 05:53:08;;;;;;;4.15;0.77;;;10.60;99.90;;;;;;5135781;27;20228;-74
2021/11/01 05:55:41;;;;;;;5.57;1.00;;;10.50;99.90;;;;;;5134635;27;20671;-72
2021/11/01 05:58:12;;;;;;;4.32;0.80;;;10.60;99.90;;;;;;5135027;27;20193;-72
2021/11/01 06:00:59;;;;;;;2.67;0.85;;;10.60;99.90;;;;;;5134747;27;20758;-73
2021/11/01 06:03:28;;;;;;;2.55;0.70;;;10.50;99.90;;;;;;5137389;27;20227;-72
2021/11/01 06:06:20;;;;;;;3.90;1.25;;;10.50;99.90;;;;;;5136884;27;20650;-73
2021/11/01 06:14:15;;;;;;;2.47;0.85;;;10.40;99.90;;;;;;5135275;27;20203;-72
2021/11/01 06:16:43;;;;;;;3.97;0.80;;;10.40;99.90;;;;;;5134438;27;20228;-73
2021/11/01 06:19:10;;;;;;;2.22;1.45;;;10.40;99.90;;;;;;5134969;27;20210;-73
2021/11/01 06:21:37;;;;;;;1.50;0.95;;;10.40;99.90;;;;;;5135242;27;20294;-73
2021/11/01 06:24:15;;;;;;;1.20;0.90;;;10.40;99.90;;;;;;5134779;27;20314;-73
2021/11/01 06:26:42;;;;;;;2.17;0.60;;;10.40;99.90;;;;;;5135304;27;20601;-72
2021/11/01 06:29:10;;;;;;;3.45;0.85;;;10.50;99.90;;;;;;5133848;27;20224;-72
2021/11/01 06:31:43;;;;;;;3.17;0.60;;;10.50;99.90;;;;;;5134651;27;20294;-72
2021/11/01 06:39:51;;;;;;;1.75;0.77;;;10.40;99.90;;;;;;5109998;27;20568;-72
2021/11/01 06:42:29;;;;;;;2.65;0.95;;;10.40;99.90;;;;;;5134351;27;20280;-73
2021/11/01 06:45:15;;;;;;;2.78;0.70;;;10.40;99.90;;;;;;5134640;27;20211;-73
2021/11/01 06:50:40;;;;;;;3.60;1.08;;;10.40;99.90;;;;;;5133856;27;20594;-71
2021/11/01 06:56:14;;;;;;;3.25;0.90;;;10.40;99.90;;;;;;5133189;27;20238;-72
2021/11/01 06:58:48;;;;;;;0.77;0.77;;;10.40;99.90;;;;;;5133853;27;20195;-72
2021/11/01 07:14:49;;;;;;;0.88;0.60;;;10.50;99.90;;;;;;5089900;28;20246;-77
2021/11/01 07:17:21;;;;;;;3.25;0.85;;;10.50;99.90;;;;;;5082737;28;20597;-76
2021/11/01 07:23:08;;;;;;;1.58;0.85;;;10.50;99.90;;;;;;5080167;28;20230;-76
2021/11/01 08:21:03;;;;;;;1.52;0.77;;;10.90;91.60;;;;;;5079490;28;20250;-77
2021/11/01 08:29:18;;;;;;;3.00;0.75;;;11.00;89.10;;;;;;5096958;28;20197;-77
2021/11/01 08:40:45;;;;;;;0.93;0.70;;;11.10;87.30;;;;;;5086619;27;20566;-76
2021/11/01 08:43:40;;;;;;;1.85;0.70;;;11.10;87.80;;;;;;5111989;28;20231;-76
2021/11/01 08:49:00;;;;;;;0.55;0.40;;;11.10;85.70;;;;;;5107225;22;20254;-72
2021/11/01 08:51:46;;;;;;;1.27;0.75;;;11.10;85.70;;;;;;5069961;28;20673;-73
2021/11/01 09:02:52;;;;;;;0.65;0.60;;;11.20;84.60;;;;;;5070346;28;20712;-73
2021/11/01 09:08:22;;;;;;;0.65;0.60;;;11.20;83.80;;;;;;5069761;28;20602;-73
2021/11/01 09:11:29;;;;;;;0.88;0.60;;;11.30;84.40;;;;;;5069288;28;20211;-72
2021/11/01 09:19:49;;;;;;;0.50;0.50;;;11.50;83.60;;;;;;5030150;28;20221;-73
2021/11/01 09:22:40;;;;;;;0.82;0.70;;;11.50;81.90;;;;;;5069818;28;20314;-73
2021/11/01 09:28:04;;;;;;;2.47;0.70;;;11.70;81.00;;;;;;5073963;28;20199;-73
2021/11/01 09:35:42;;;;;;;0.80;0.60;;;11.80;80.00;;;;;;5081500;28;20211;-73
2021/11/01 09:36:18;;;;;;;2.25;0.70;;;11.90;78.40;;;;;;5068951;28;20243;-74
2021/11/01 09:39:18;;;;;;;1.67;0.73;;;11.90;78.00;;;;;;5069543;28;20228;-74
2021/11/01 09:41:46;;;;;;;1.25;0.80;;;12.00;78.10;;;;;;5068781;28;20215;-73
2021/11/01 09:44:16;;;;;;;0.88;0.57;;;12.00;76.60;;;;;;5069075;28;20239;-73
2021/11/01 09:46:44;;;;;;;2.03;0.95;;;12.10;77.40;;;;;;5067753;28;20236;-74
2021/11/01 09:49:15;;;;;;;1.25;0.80;;;12.20;76.30;;;;;;5057296;28;20242;-73
2021/11/01 09:51:44;;;;;;;0.73;0.70;;;12.30;75.50;;;;;;5065438;28;20207;-74
2021/11/01 09:54:19;;;;;;;2.00;0.70;;;12.30;73.20;;;;;;5070517;28;20217;-74
2021/11/01 09:56:57;;;;;;;1.30;0.77;;;12.40;73.30;;;;;;5074428;28;20713;-73
2021/11/01 09:59:29;;;;;;;0.80;0.80;;;12.40;72.90;;;;;;5071834;28;20233;-73
2021/11/01 10:01:56;;;;;;;1.33;0.60;;;12.50;72.80;;;;;;5059734;28;20205;-74
2021/11/01 10:04:26;;;;;;;1.17;1.00;;;12.50;72.50;;;;;;5056649;28;20674;-73
2021/11/01 10:07:07;;;;;;;0.60;0.57;;;12.40;71.80;;;;;;5056730;28;20212;-74
2021/11/01 10:09:34;;;;;;;0.90;0.70;;;12.40;72.50;;;;;;5056721;28;20719;-73
2021/11/01 10:12:01;;;;;;;0.80;0.68;;;12.30;72.00;;;;;;5056570;28;20575;-74
2021/11/01 10:14:29;;;;;;;1.83;0.82;;;12.20;71.20;;;;;;5060078;28;20213;-74
2021/11/01 10:19:42;;;;;;;1.60;0.73;;;12.20;72.10;;;;;;5057840;28;20723;-74
2021/11/01 10:22:20;;;;;;;1.60;0.60;;;12.20;72.00;;;;;;5057627;28;20208;-73
2021/11/01 10:24:51;;;;;;;1.02;0.90;;;12.30;71.20;;;;;;5058127;28;20279;-73
2021/11/01 10:27:30;;;;;;;0.77;0.73;;;12.40;71.40;;;;;;5059101;28;20216;-75
2021/11/01 10:30:01;;;;;;;1.23;1.02;;;12.40;70.70;;;;;;5060919;28;20228;-73
2021/11/01 10:32:33;;;;;;;1.48;0.65;;;12.50;70.60;;;;;;5062034;28;20277;-75
2021/11/01 10:35:15;;;;;;;0.65;0.60;;;12.60;69.90;;;;;;5063491;28;20206;-76
2021/11/01 10:37:56;;;;;;;0.88;0.68;;;12.60;69.60;;;;;;5063247;28;20221;-76
2021/11/01 10:40:24;;;;;;;1.88;0.70;;;12.60;69.90;;;;;;5061719;28;20209;-73
2021/11/01 10:42:51;;;;;;;1.58;0.75;;;12.60;69.90;;;;;;5055855;28;20584;-73
2021/11/01 10:45:32;;;;;;;0.85;0.85;;;12.60;69.90;;;;;;5056434;28;20209;-73
2021/11/01 11:10:47;;;;;;;1.70;1.15;;;12.90;68.90;;;;;;5054626;28;20218;-74
2021/11/01 11:13:07;;;;;;;0.98;0.80;;;13.00;68.00;;;;;;5057770;28;20198;-73
2021/11/01 11:15:37;;;;;;;1.02;0.60;;;13.10;67.90;;;;;;5056468;28;20666;-74
2021/11/01 11:18:14;;;;;;;0.70;0.70;;;13.20;67.80;;;;;;5055460;28;20213;-72
2021/11/01 11:21:04;;;;;;;0.73;0.50;;;13.40;66.20;;;;;;5057023;28;20214;-73
2021/11/01 11:32:17;;;;;;;0.60;0.60;;;13.50;63.50;;;;;;5014012;28;20418;-73
2021/11/01 11:43:46;;;;;;;2.35;0.70;;;13.70;62.00;;;;;;5090759;27;20577;-72
2021/11/01 11:49:11;;;;;;;1.15;0.77;;;13.90;60.50;;;;;;5090109;28;20289;-72
2021/11/01 11:51:40;;;;;;;1.13;0.50;;;13.90;59.90;;;;;;5090448;28;20205;-73
2021/11/01 11:54:08;;;;;;;2.55;1.00;;;14.10;59.80;;;;;;5090462;28;20293;-73
2021/11/01 11:56:37;;;;;;;0.80;0.70;;;14.10;58.60;;;;;;5090436;28;20703;-73
2021/11/01 11:59:10;;;;;;;1.75;0.90;;;14.20;57.80;;;;;;5089146;28;20224;-73
2021/11/01 12:01:40;;;;;;;0.60;0.60;;;14.10;57.10;;;;;;5089559;28;20243;-72
2021/11/01 12:04:20;;;;;;;2.92;1.55;;;14.20;58.00;;;;;;5089693;28;20231;-74
2021/11/01 12:06:53;;;;;;;2.42;1.20;;;14.20;57.90;;;;;;5089781;28;20212;-73
2021/11/01 12:09:23;;;;;;;1.10;0.90;;;14.40;57.70;;;;;;5089001;28;20235;-73
2021/11/01 12:17:33;;;;;;;1.85;0.60;;;14.60;55.80;;;;;;5089716;28;20207;-74
2021/11/01 12:20:01;;;;;;;0.95;0.90;;;14.60;55.70;;;;;;5089324;28;20315;-73
2021/11/01 12:22:33;;;;;;;1.42;1.05;;;14.80;55.60;;;;;;5089197;28;20225;-73
2021/11/01 12:25:04;;;;;;;1.35;0.80;;;14.90;55.10;;;;;;5090173;28;20213;-73
2021/11/01 12:27:34;;;;;;;1.63;0.80;;;14.80;53.90;;;;;;5090268;28;20291;-73
2021/11/01 12:30:07;;;;;;;1.35;0.82;;;14.80;54.40;;;;;;5090189;28;20222;-73
2021/11/01 12:32:38;;;;;;;3.13;0.73;;;14.90;53.80;;;;;;5100600;28;20202;-73
2021/11/01 12:35:11;;;;;;;1.88;0.80;;;14.80;53.70;;;;;;5097951;28;20235;-73
2021/11/01 12:37:41;;;;;;;1.73;0.77;;;14.90;53.80;;;;;;5091480;28;20580;-73
2021/11/01 12:40:18;;;;;;;1.58;0.60;;;14.90;53.80;;;;;;5089337;28;20221;-74
2021/11/01 12:42:57;;;;;;;0.80;0.60;;;15.00;53.90;;;;;;5089743;28;20228;-74
2021/11/01 12:48:44;;;;;;;1.20;0.65;;;15.10;54.00;;;;;;5071134;28;20227;-72
2021/11/01 12:59:40;;;;;;;1.38;0.70;;;15.10;52.30;;;;;;5083106;28;20217;-73
2021/11/01 13:02:12;;;;;;;1.70;0.52;;;15.10;52.10;;;;;;5089617;28;20225;-74
2021/11/01 13:04:39;;;;;;;1.20;0.82;;;15.10;51.90;;;;;;5086745;28;20296;-74
2021/11/01 13:07:19;;;;;;;1.88;0.77;;;15.20;50.80;;;;;;5077570;28;20742;-74
2021/11/01 13:09:54;;;;;;;1.40;0.80;;;15.20;50.70;;;;;;5076818;28;20655;-73
2021/11/01 13:18:09;;;;;;;1.65;0.93;;;15.10;49.70;;;;;;5098252;28;20216;-72
2021/11/01 13:20:38;;;;;;;1.50;1.10;;;15.10;49.50;;;;;;5096367;28;20258;-72
2021/11/01 13:23:06;;;;;;;1.55;0.80;;;15.10;49.80;;;;;;5089166;28;20312;-73
2021/11/01 13:25:40;;;;;;;3.10;1.00;;;15.10;50.70;;;;;;5076223;28;20692;-74
2021/11/01 13:28:30;;;;;;;1.33;0.60;;;15.20;49.80;;;;;;5075950;28;20255;-74
2021/11/01 13:36:49;;;;;;;1.95;0.75;;;15.10;49.90;;;;;;5076047;28;20302;-72
2021/11/01 13:39:23;;;;;;;2.75;0.85;;;15.00;49.00;;;;;;5074870;28;20458;-74
2021/11/01 13:41:50;;;;;;;3.78;0.90;;;14.90;50.00;;;;;;5075585;28;20223;-74
2021/11/01 13:44:21;;;;;;;2.20;1.55;;;14.70;48.80;;;;;;5075752;28;20307;-74
2021/11/01 13:46:51;;;;;;;2.15;1.02;;;14.80;48.90;;;;;;5075715;28;20210;-74
2021/11/01 13:49:21;;;;;;;1.80;0.73;;;14.80;48.90;;;;;;5074703;28;20236;-73
2021/11/01 13:51:50;;;;;;;2.05;0.88;;;14.80;49.40;;;;;;5074583;28;20263;-73
2021/11/01 13:54:28;;;;;;;2.40;1.02;;;14.80;48.90;;;;;;5074640;28;20202;-72
2021/11/01 13:57:00;;;;;;;2.20;0.70;;;14.80;48.90;;;;;;5073973;28;20205;-74
2021/11/01 13:59:37;;;;;;;4.10;1.20;;;14.90;49.20;;;;;;5074130;28;20593;-72
2021/11/01 14:02:41;;;;;;;3.53;1.20;;;14.90;49.00;;;;;;5074314;28;20225;-72
2021/11/01 14:13:34;;;;;;;4.47;0.90;;;15.10;47.60;;;;;;5088845;28;20224;-73
2021/11/01 14:16:19;;;;;;;3.30;0.85;;;15.00;48.10;;;;;;5077465;28;20210;-72
2021/11/01 14:58:24;;;;;;;3.22;1.10;;;14.40;49.60;;;;;;5064786;28;20609;-73
2021/11/01 15:01:05;;;;;;;2.35;1.10;;;14.40;50.40;;;;;;5089327;28;20639;-74
2021/11/01 15:18:08;;;;;;;2.17;1.00;;;14.00;52.10;;;;;;5082958;28;20565;-74
2021/11/01 15:20:50;;;;;;;1.85;1.17;;;13.90;52.50;;;;;;5088999;28;20209;-74
2021/11/01 15:40:45;;;;;;;3.45;1.20;;;12.60;68.00;;;;;;5038430;28;20306;-72
2021/11/01 16:18:57;;;;;;;6.32;2.28;;;11.20;92.40;;;;;;5074306;28;20214;-71
2021/11/01 16:21:24;;;;;;;3.72;1.60;;;11.10;93.50;;;;;;5074567;28;20201;-72
2021/11/01 16:23:51;;;;;;;5.75;2.22;;;11.00;93.90;;;;;;5074617;28;20351;-72
2021/11/01 16:26:24;;;;;;;4.82;1.83;;;10.90;94.30;;;;;;5074356;28;20256;-73
2021/11/01 16:28:56;;;;;;;4.05;1.75;;;10.90;95.30;;;;;;5073741;28;20232;-72
2021/11/01 16:31:32;;;;;;;6.30;1.75;;;10.80;95.20;;;;;;5074144;28;20213;-72
2021/11/01 16:34:06;;;;;;;3.72;1.48;;;10.80;95.40;;;;;;5074040;28;20251;-73
2021/11/01 16:39:17;;;;;;;2.58;1.55;;;10.50;96.60;;;;;;5071846;28;20252;-72
2021/11/01 16:41:46;;;;;;;3.92;1.83;;;10.40;96.90;;;;;;5074186;28;20255;-73
2021/11/01 16:44:18;;;;;;;2.15;1.75;;;10.30;97.50;;;;;;5073579;28;20205;-73
2021/11/01 16:46:46;;;;;;;3.92;1.80;;;10.20;98.40;;;;;;5073109;28;20259;-75
2021/11/01 16:49:14;;;;;;;2.85;1.83;;;10.10;98.50;;;;;;5072961;28;20253;-73
2021/11/01 16:51:42;;;;;;;1.80;1.52;;;10.10;99.20;;;;;;5072433;28;20212;-73
2021/11/01 16:54:13;;;;;;;3.45;1.88;;;10.00;99.70;;;;;;5073434;28;20251;-73
2021/11/01 16:56:52;;;;;;;6.45;3.20;;;10.00;99.90;;;;;;5073899;28;20214;-73
2021/11/01 16:59:34;;;;;;;6.22;2.42;;;9.90;99.90;;;;;;5082291;28;20260;-73
2021/11/01 17:02:17;;;;;;;5.70;2.45;;;9.90;99.90;;;;;;5079078;28;20220;-73
2021/11/01 17:04:48;;;;;;;4.13;2.50;;;9.90;99.90;;;;;;5074122;28;20205;-74
2021/11/01 17:07:22;;;;;;;7.20;2.45;;;9.80;99.90;;;;;;5073724;28;20204;-73
2021/11/01 17:10:24;;;;;;;5.05;2.20;;;9.80;99.90;;;;;;5073624;28;20265;-73
2021/11/01 17:21:37;;;;;;;5.32;3.00;;;9.40;99.90;;;;;;5073052;28;20211;-73
2021/11/01 17:24:16;;;;;;;5.15;3.15;;;9.40;99.90;;;;;;5072787;28;20266;-73
2021/11/01 17:26:59;;;;;;;6.80;3.50;;;9.50;99.90;;;;;;5073083;28;20211;-72
2021/11/01 17:29:51;;;;;;;9.05;3.50;;;9.40;99.90;;;;;;5072937;28;20719;-73
2021/11/01 17:35:22;;;;;;;3.20;2.90;;;9.50;99.90;;;;;;5072766;28;20216;-73
2021/11/01 17:38:24;;;;;;;5.60;2.95;;;9.50;99.90;;;;;;5072317;28;20208;-72
2021/11/01 18:36:47;;;;;;;7.78;2.55;;;8.70;99.90;;;;;;5073999;28;20562;-74
2021/11/01 18:42:09;;;;;;;3.83;2.40;;;8.50;99.90;;;;;;5081615;28;20202;-73
2021/11/01 18:45:01;;;;;;;5.43;3.95;;;8.50;99.90;;;;;;5082785;28;20231;-72
2021/11/01 18:53:04;;;;;;;4.85;3.30;;;8.30;99.90;;;;;;5074094;28;20275;-73
2021/11/01 18:55:33;;;;;;;6.18;3.30;;;8.20;99.90;;;;;;5073923;28;20203;-74
2021/11/01 18:58:01;;;;;;;5.10;3.72;;;8.20;99.90;;;;;;5073155;28;20208;-73
2021/11/01 19:00:29;;;;;;;8.65;4.63;;;8.20;99.90;;;;;;5072167;28;20206;-73
2021/11/01 19:02:57;;;;;;;6.65;4.90;;;8.30;99.90;;;;;;5072114;28;20217;-73
2021/11/01 19:05:31;;;;;;;5.90;5.00;;;8.30;99.90;;;;;;5072000;28;20206;-74
2021/11/01 19:08:05;;;;;;;10.32;5.18;;;8.30;99.90;;;;;;5073485;28;20219;-74
2021/11/01 20:06:40;;;;;;;6.10;3.70;;;7.70;99.90;;;;;;5076144;28;20285;-73
2021/11/01 20:15:01;;;;;;;6.68;4.38;;;7.60;99.90;;;;;;5047291;28;20259;-74
2021/11/01 21:27:02;;;;;;;11.73;7.80;;;6.60;99.90;;;;;;5074979;28;20295;-73
2021/11/01 21:29:31;;;;;;;11.32;8.07;;;6.60;99.90;;;;;;5073772;28;20612;-77
2021/11/01 21:31:58;;;;;;;10.20;8.50;;;6.70;99.90;;;;;;5073916;28;20704;-73
2021/11/01 21:34:31;;;;;;;10.15;8.27;;;6.70;99.90;;;;;;5073404;28;20575;-74
2021/11/01 21:36:59;;;;;;;10.93;7.43;;;6.70;99.90;;;;;;5073892;28;20190;-75
2021/11/01 21:39:27;;;;;;;9.40;8.05;;;6.70;99.90;;;;;;5073320;28;20252;-74
2021/11/01 21:41:54;;;;;;;9.55;7.32;;;6.70;99.90;;;;;;5073712;28;20248;-75
2021/11/01 21:44:22;;;;;;;11.43;6.93;;;6.60;99.90;;;;;;5073008;28;20259;-73
2021/11/01 21:46:49;;;;;;;9.55;7.15;;;6.60;99.90;;;;;;5072600;28;20232;-73
2021/11/01 21:49:17;;;;;;;14.23;8.40;;;6.60;99.90;;;;;;5072438;28;20680;-73
2021/11/01 21:51:45;;;;;;;10.88;8.15;;;6.70;99.90;;;;;;5072834;28;20602;-74
2021/11/01 21:54:26;;;;;;;11.68;8.35;;;6.60;99.90;;;;;;5072355;28;20201;-73
2021/11/01 21:57:00;;;;;;;9.27;7.93;;;6.60;99.90;;;;;;5072448;28;20206;-74
2021/11/01 22:19:01;;;;;;;18.65;9.75;;;6.60;99.90;;;;;;5072176;28;20247;-73
2021/11/01 22:21:32;;;;;;;13.18;10.20;;;6.70;99.90;;;;;;5072344;28;20629;-72
2021/11/01 22:24:05;;;;;;;16.27;10.50;;;6.80;99.90;;;;;;5072182;28;20300;-73
2021/11/01 22:26:47;;;;;;;19.38;11.40;;;6.80;99.90;;;;;;5072565;28;20693;-72
2021/11/01 22:32:24;;;;;;;13.30;10.63;;;6.90;99.90;;;;;;5048601;28;20197;-73